createdAt,value
2022-10-26T00:01:09.514Z,24.10
2022-10-26T00:03:42.387Z,20.90
2022-10-26T00:06:13.797Z,20.60
2022-10-26T00:08:44.571Z,22.30
2022-10-26T00:11:15.311Z,20.70
2022-10-26T00:13:46.279Z,20.70
2022-10-26T00:16:17.942Z,21.60
2022-10-26T00:18:49.515Z,21.50
2022-10-26T00:21:20.143Z,21.90
2022-10-26T00:23:51.132Z,21.00
2022-10-26T00:26:21.425Z,22.60
2022-10-26T00:28:53.974Z,22.30
2022-10-26T00:31:24.917Z,22.40
2022-10-26T00:33:56.183Z,25.10
2022-10-26T00:36:27.229Z,25.20
2022-10-26T00:38:58.450Z,23.90
2022-10-26T00:41:30.390Z,25.10
2022-10-26T00:44:01.378Z,23.10
2022-10-26T00:46:33.574Z,25.70
2022-10-26T00:49:06.734Z,20.80
2022-10-26T00:51:39.590Z,19.40
2022-10-26T00:54:12.369Z,24.10
2022-10-26T00:56:43.353Z,23.30
2022-10-26T00:59:15.824Z,21.30
2022-10-26T01:01:47.894Z,20.90
2022-10-26T01:04:19.845Z,21.30
2022-10-26T01:06:50.331Z,24.70
2022-10-26T01:09:21.734Z,22.20
2022-10-26T01:11:52.215Z,20.80
2022-10-26T01:14:23.821Z,24.70
2022-10-26T01:16:58.955Z,22.60
2022-10-26T01:19:52.126Z,23.50
2022-10-26T01:22:23.923Z,24.20
2022-10-26T01:25:04.113Z,21.40
2022-10-26T01:27:35.623Z,22.60
2022-10-26T01:30:26.940Z,19.70
2022-10-26T01:33:13.474Z,25.10
2022-10-26T01:35:49.304Z,22.40
2022-10-26T01:38:23.782Z,20.70
2022-10-26T01:41:00.138Z,21.40
2022-10-26T01:43:33.998Z,21.40
2022-10-26T01:46:05.496Z,28.60
2022-10-26T01:48:37.508Z,21.40
2022-10-26T01:51:08.901Z,21.90
2022-10-26T01:53:43.287Z,27.80
2022-10-26T01:56:19.477Z,26.50
2022-10-26T01:59:05.929Z,29.20
2022-10-26T02:01:43.177Z,24.70
2022-10-26T02:04:18.636Z,25.20
2022-10-26T02:06:54.919Z,25.10
2022-10-26T02:09:29.484Z,25.10
2022-10-26T02:12:01.106Z,24.40
2022-10-26T02:14:35.627Z,22.50
2022-10-26T02:17:08.432Z,26.50
2022-10-26T02:19:42.126Z,23.30
2022-10-26T02:22:15.180Z,25.00
2022-10-26T02:24:46.240Z,26.00
2022-10-26T02:27:20.423Z,26.30
2022-10-26T02:29:52.308Z,23.80
2022-10-26T02:32:23.790Z,20.70
2022-10-26T02:34:55.103Z,23.80
2022-10-26T02:37:27.403Z,23.10
2022-10-26T02:39:58.941Z,21.90
2022-10-26T02:42:29.781Z,24.70
2022-10-26T02:45:02.047Z,21.40
2022-10-26T02:47:33.084Z,23.70
2022-10-26T02:50:03.831Z,19.80
2022-10-26T02:52:38.235Z,22.60
2022-10-26T02:55:10.631Z,25.90
2022-10-26T02:57:42.765Z,21.60
2022-10-26T03:00:15.413Z,24.10
2022-10-26T03:02:48.569Z,22.90
2022-10-26T03:05:20.806Z,24.90
2022-10-26T03:07:51.469Z,21.10
2022-10-26T03:10:21.965Z,22.60
2022-10-26T03:12:53.595Z,19.20
2022-10-26T03:15:24.260Z,20.30
2022-10-26T03:17:55.487Z,23.50
2022-10-26T03:20:26.123Z,36.50
2022-10-26T03:22:57.287Z,20.70
2022-10-26T03:25:28.305Z,21.20
2022-10-26T03:27:59.394Z,23.60
2022-10-26T03:30:30.819Z,21.90
2022-10-26T03:33:01.357Z,22.30
2022-10-26T03:35:31.956Z,27.90
2022-10-26T03:38:02.788Z,22.20
2022-10-26T03:40:33.241Z,24.50
2022-10-26T03:43:04.095Z,20.80
2022-10-26T03:45:34.427Z,21.60
2022-10-26T03:48:05.687Z,22.40
2022-10-26T03:50:36.256Z,21.50
2022-10-26T03:53:07.086Z,26.50
2022-10-26T03:55:37.652Z,24.40
2022-10-26T03:58:08.470Z,22.40
2022-10-26T04:00:38.911Z,23.70
2022-10-26T04:03:09.616Z,23.90
2022-10-26T04:05:40.038Z,21.90
2022-10-26T04:08:10.937Z,18.70
2022-10-26T04:10:41.806Z,21.00
2022-10-26T04:13:12.550Z,24.50
2022-10-26T04:15:43.626Z,26.40
2022-10-26T04:18:14.354Z,22.70
2022-10-26T04:20:44.862Z,25.50
2022-10-26T04:23:16.487Z,21.50
2022-10-26T04:25:47.540Z,21.70
2022-10-26T04:28:18.066Z,20.40
2022-10-26T04:30:48.913Z,23.60
2022-10-26T04:33:21.788Z,21.70
2022-10-26T04:35:52.342Z,18.80
2022-10-26T04:38:22.947Z,23.50
2022-10-26T04:40:53.732Z,24.60
2022-10-26T04:43:24.371Z,24.60
2022-10-26T04:45:57.719Z,25.00
2022-10-26T04:48:28.671Z,21.20
2022-10-26T04:51:01.019Z,21.60
2022-10-26T04:53:31.768Z,23.70
2022-10-26T04:56:02.603Z,21.80
2022-10-26T04:58:33.081Z,22.60
2022-10-26T05:01:03.966Z,26.00
2022-10-26T05:03:34.690Z,23.20
2022-10-26T05:06:05.281Z,21.40
2022-10-26T05:08:35.709Z,32.00
2022-10-26T05:11:06.437Z,25.70
2022-10-26T05:13:37.230Z,23.40
2022-10-26T05:16:09.028Z,23.00
2022-10-26T05:18:39.901Z,28.00
2022-10-26T05:21:10.525Z,24.30
2022-10-26T05:23:41.114Z,24.20
2022-10-26T05:26:11.821Z,20.90
2022-10-26T05:28:42.411Z,24.90
2022-10-26T05:31:13.900Z,22.70
2022-10-26T05:33:44.507Z,23.90
2022-10-26T05:36:15.159Z,26.30
2022-10-26T05:38:45.992Z,27.50
2022-10-26T05:41:16.743Z,27.10
2022-10-26T05:43:48.168Z,25.60
2022-10-26T05:46:19.000Z,18.50
2022-10-26T05:48:49.472Z,22.70
2022-10-26T05:51:20.041Z,20.70
2022-10-26T05:53:54.404Z,25.10
2022-10-26T05:56:35.059Z,37.10
2022-10-26T05:59:05.871Z,20.80
2022-10-26T06:01:41.710Z,23.40
2022-10-26T06:04:18.909Z,24.60
2022-10-26T06:06:53.302Z,25.50
2022-10-26T06:09:24.795Z,25.70
2022-10-26T06:11:55.868Z,25.20
2022-10-26T06:14:27.124Z,21.20
2022-10-26T06:17:04.934Z,20.20
2022-10-26T06:19:41.472Z,18.60
2022-10-26T06:22:18.928Z,19.50
2022-10-26T06:24:53.315Z,21.50
2022-10-26T06:27:30.129Z,20.30
2022-10-26T06:30:02.071Z,20.60
2022-10-26T06:32:34.236Z,19.20
2022-10-26T06:35:10.984Z,22.90
2022-10-26T08:53:53.230Z,12.60
2022-10-26T08:56:25.775Z,14.60
2022-10-26T09:11:08.552Z,9.90
2022-10-26T09:13:44.529Z,12.10
2022-10-26T09:16:19.035Z,11.50
2022-10-26T09:18:57.743Z,11.00
2022-10-26T09:21:41.885Z,9.00
2022-10-26T09:24:15.602Z,10.30
2022-10-26T09:26:54.523Z,11.10
2022-10-26T09:29:28.144Z,10.10
2022-10-26T09:32:00.521Z,10.20
2022-10-26T09:34:33.927Z,8.90
2022-10-26T09:37:13.557Z,8.00
2022-10-26T09:39:48.592Z,5.10
2022-10-26T09:42:21.347Z,7.20
2022-10-26T09:44:55.909Z,8.50
2022-10-26T09:47:31.698Z,7.90
2022-10-26T09:50:05.174Z,6.70
2022-10-26T09:52:36.276Z,7.60
2022-10-26T09:55:07.853Z,8.50
2022-10-26T09:57:38.913Z,8.30
2022-10-26T10:00:13.370Z,7.20
2022-10-26T10:02:45.341Z,6.60
2022-10-26T10:05:39.119Z,10.00
2022-10-26T10:08:19.840Z,10.60
2022-10-26T10:11:00.574Z,8.20
2022-10-26T10:13:32.187Z,8.20
2022-10-26T10:16:05.467Z,10.20
2022-10-26T10:18:36.631Z,8.30
2022-10-26T10:21:07.742Z,8.40
2022-10-26T10:23:39.216Z,5.20
2022-10-26T10:26:12.132Z,6.30
2022-10-26T10:28:44.189Z,8.60
2022-10-26T10:31:28.313Z,8.20
2022-10-26T10:33:59.174Z,5.30
2022-10-26T10:36:30.843Z,8.60
2022-10-26T10:39:02.153Z,6.90
2022-10-26T10:41:36.551Z,9.00
2022-10-26T10:44:09.477Z,8.00
2022-10-26T10:46:39.984Z,13.20
2022-10-26T10:49:28.038Z,10.20
2022-10-26T10:51:59.094Z,6.50
2022-10-26T10:54:31.531Z,6.30
2022-10-26T10:57:07.899Z,9.50
2022-10-26T10:59:43.946Z,6.50
2022-10-26T11:02:44.610Z,6.70
2022-10-26T11:05:27.744Z,8.70
2022-10-26T11:08:02.842Z,7.70
2022-10-26T11:10:35.772Z,7.60
2022-10-26T11:13:08.516Z,6.50
2022-10-26T11:15:40.884Z,6.40
2022-10-26T11:18:14.393Z,6.50
2022-10-26T11:20:48.240Z,5.80
2022-10-26T11:23:22.163Z,7.30
2022-10-26T11:25:54.629Z,9.70
2022-10-26T11:28:40.661Z,6.50
2022-10-26T11:31:14.974Z,10.00
2022-10-26T11:33:48.119Z,7.40
2022-10-26T11:36:22.053Z,5.40
2022-10-26T11:38:57.436Z,6.30
2022-10-26T11:41:32.746Z,9.40
2022-10-26T11:44:06.880Z,5.00
2022-10-26T11:46:39.393Z,7.60
2022-10-26T11:49:14.396Z,6.50
2022-10-26T11:51:48.388Z,6.80
2022-10-26T11:54:22.488Z,4.90
2022-10-26T11:56:54.495Z,6.30
2022-10-26T11:59:28.080Z,7.30
2022-10-26T12:02:03.813Z,5.70
2022-10-26T12:04:36.367Z,5.90
2022-10-26T12:07:10.343Z,6.70
2022-10-26T12:09:42.672Z,5.90
2022-10-26T12:12:19.326Z,8.80
2022-10-26T12:14:52.369Z,5.90
2022-10-26T12:17:26.466Z,4.80
2022-10-26T12:20:00.183Z,5.20
2022-10-26T12:22:33.449Z,7.40
2022-10-26T12:27:34.134Z,8.50
2022-10-26T12:30:24.406Z,5.60
2022-10-26T12:32:56.380Z,9.30
2022-10-26T12:35:37.108Z,6.70
2022-10-26T12:38:29.067Z,8.10
2022-10-26T12:41:15.410Z,6.70
2022-10-26T12:43:46.186Z,6.10
2022-10-26T12:46:32.767Z,5.50
2022-10-26T12:49:03.267Z,9.30
2022-10-26T12:51:44.469Z,6.00
2022-10-26T12:54:33.878Z,5.40
2022-10-26T12:57:10.115Z,4.70
2022-10-26T12:59:44.461Z,7.20
2022-10-26T13:02:32.397Z,5.00
2022-10-26T13:05:32.214Z,6.40
2022-10-26T13:08:04.677Z,4.50
2022-10-26T13:10:36.218Z,8.70
2022-10-26T13:13:07.347Z,4.50
2022-10-26T13:15:39.989Z,5.20
2022-10-26T13:18:11.861Z,5.20
2022-10-26T13:20:53.578Z,6.10
2022-10-26T13:23:27.085Z,5.00
2022-10-26T13:26:04.710Z,5.00
2022-10-26T13:28:43.593Z,6.30
2022-10-26T13:31:18.322Z,5.20
2022-10-26T13:33:52.170Z,5.60
2022-10-26T13:36:28.095Z,5.40
2022-10-26T13:38:59.445Z,7.00
2022-10-26T13:41:33.893Z,6.50
2022-10-26T13:44:06.827Z,3.10
2022-10-26T13:46:38.151Z,5.40
2022-10-26T13:49:10.044Z,4.60
2022-10-26T13:51:44.380Z,3.80
2022-10-26T13:54:24.559Z,4.70
2022-10-26T13:57:02.877Z,4.00
2022-10-26T13:59:35.611Z,5.60
2022-10-26T14:02:15.980Z,9.00
2022-10-26T14:04:49.077Z,7.40
2022-10-26T14:07:23.293Z,10.10
2022-10-26T14:09:57.957Z,4.40
2022-10-26T14:12:29.787Z,3.70
2022-10-26T14:15:02.877Z,5.60
2022-10-26T14:17:34.008Z,7.20
2022-10-26T14:20:04.608Z,4.00
2022-10-26T14:22:35.351Z,5.30
2022-10-26T14:25:26.664Z,5.50
2022-10-26T14:28:21.255Z,7.00
2022-10-26T14:30:52.672Z,6.50
2022-10-26T14:33:27.579Z,4.10
2022-10-26T14:35:58.270Z,5.10
2022-10-26T14:38:30.328Z,6.50
2022-10-26T14:41:01.088Z,4.50
2022-10-26T14:43:32.629Z,5.70
2022-10-26T14:46:03.561Z,5.70
2022-10-26T14:48:35.751Z,7.80
2022-10-26T14:51:08.109Z,7.60
2022-10-26T14:53:40.085Z,8.20
2022-10-26T14:56:22.137Z,6.10
2022-10-26T14:58:53.114Z,5.80
2022-10-26T15:01:33.211Z,8.00
2022-10-26T15:04:06.215Z,10.40
2022-10-26T15:06:44.173Z,7.60
2022-10-26T15:09:40.919Z,7.90
2022-10-26T15:12:21.079Z,4.90
2022-10-26T15:14:52.710Z,5.90
2022-10-26T15:17:27.801Z,7.20
2022-10-26T15:19:59.398Z,6.30
2022-10-26T15:22:32.331Z,7.10
2022-10-26T15:25:04.577Z,6.20
2022-10-26T15:27:35.301Z,7.50
2022-10-26T15:30:13.783Z,10.80
2022-10-26T15:32:44.781Z,10.40
